createdAt,value
2017-01-26T00:00:10.590Z,is
2017-01-26T00:01:12.460Z,46.10
2017-01-26T00:02:12.195Z,46.10
2017-01-26T00:03:12.737Z,46.00
2017-01-26T00:04:11.900Z,46.00
2017-01-26T00:05:13.030Z,46.40
2017-01-26T00:06:12.799Z,46.10
2017-01-26T00:07:12.858Z,46.20
2017-01-26T00:08:09.776Z,is
2017-01-26T00:09:12.408Z,46.00
2017-01-26T00:10:12.376Z,46.00
2017-01-26T00:11:12.492Z,46.10
2017-01-26T00:12:12.412Z,46.10
2017-01-26T00:13:11.526Z,46.00
2017-01-26T00:14:12.359Z,46.20
2017-01-26T00:15:12.405Z,46.10
2017-01-26T00:16:12.024Z,46.20
2017-01-26T00:17:12.274Z,46.20
2017-01-26T00:18:12.790Z,46.20
2017-01-26T00:19:12.414Z,46.10
2017-01-26T00:20:11.747Z,46.10
2017-01-26T00:21:12.448Z,46.30
2017-01-26T00:22:14.276Z,46.30
2017-01-26T00:23:11.957Z,46.30
2017-01-26T00:24:13.625Z,46.30
2017-01-26T00:25:11.651Z,46.20
2017-01-26T00:26:11.715Z,46.20
2017-01-26T00:27:11.725Z,46.30
2017-01-26T00:28:11.807Z,46.30
2017-01-26T00:29:11.759Z,46.20
2017-01-26T00:30:11.748Z,46.20
2017-01-26T00:31:12.403Z,46.30
2017-01-26T00:32:12.508Z,46.30
2017-01-26T00:33:12.181Z,46.40
2017-01-26T00:34:12.186Z,46.30
2017-01-26T00:35:12.320Z,46.40
2017-01-26T00:36:13.279Z,46.30
2017-01-26T00:37:14.121Z,46.40
2017-01-26T00:38:12.116Z,46.30
2017-01-26T00:39:10.661Z,is
2017-01-26T00:40:12.589Z,46.30
2017-01-26T00:41:11.646Z,46.40
2017-01-26T00:42:11.816Z,46.30
2017-01-26T00:43:12.029Z,46.30
2017-01-26T00:44:12.192Z,46.30
2017-01-26T00:45:13.640Z,46.30
2017-01-26T00:46:14.353Z,46.30
2017-01-26T00:47:13.174Z,46.30
2017-01-26T00:48:13.439Z,46.40
2017-01-26T00:49:11.844Z,46.30
2017-01-26T00:50:12.560Z,46.50
2017-01-26T00:51:13.192Z,46.30
2017-01-26T00:52:12.252Z,46.40
2017-01-26T00:53:13.645Z,46.40
2017-01-26T00:54:11.767Z,46.30
2017-01-26T00:55:11.940Z,46.50
2017-01-26T00:56:11.881Z,46.40
2017-01-26T00:57:11.965Z,46.30
2017-01-26T00:58:12.154Z,46.30
2017-01-26T00:59:12.396Z,46.40
2017-01-26T01:00:16.239Z,46.40
2017-01-26T01:01:14.134Z,46.40
2017-01-26T01:02:13.351Z,46.40
2017-01-26T01:03:13.180Z,46.40
2017-01-26T01:04:14.946Z,46.50
2017-01-26T01:05:12.181Z,46.40
2017-01-26T01:06:13.410Z,is
2017-01-26T01:07:14.075Z,46.50
2017-01-26T01:08:12.759Z,46.40
2017-01-26T01:09:12.385Z,46.50
2017-01-26T01:10:12.205Z,46.50
2017-01-26T01:11:15.214Z,46.50
2017-01-26T01:12:15.258Z,46.50
2017-01-26T01:13:12.837Z,46.50
2017-01-26T01:14:14.472Z,46.50
2017-01-26T01:15:11.918Z,46.40
2017-01-26T01:16:14.208Z,46.50
2017-01-26T01:17:10.445Z,is
2017-01-26T01:18:12.901Z,46.50
2017-01-26T01:19:11.919Z,46.40
2017-01-26T01:20:14.256Z,46.50
2017-01-26T01:21:15.829Z,46.50
2017-01-26T01:22:12.462Z,46.50
2017-01-26T01:23:11.981Z,46.40
2017-01-26T01:24:13.168Z,46.40
2017-01-26T01:25:12.963Z,46.50
2017-01-26T01:26:12.149Z,46.40
2017-01-26T01:27:12.816Z,46.50
2017-01-26T01:28:11.877Z,46.50
2017-01-26T01:29:12.152Z,46.40
2017-01-26T01:30:13.075Z,46.50
2017-01-26T01:31:12.219Z,46.40
2017-01-26T01:32:10.779Z,is
2017-01-26T01:33:12.740Z,46.40
2017-01-26T01:34:12.881Z,46.50
2017-01-26T01:35:12.317Z,46.50
2017-01-26T01:36:13.517Z,46.50
2017-01-26T01:37:11.842Z,46.50
2017-01-26T01:38:13.373Z,46.50
2017-01-26T01:39:12.098Z,46.50
2017-01-26T01:40:13.791Z,46.50
2017-01-26T01:41:13.171Z,46.50
2017-01-26T01:42:11.324Z,is
2017-01-26T01:43:13.322Z,46.60
2017-01-26T01:44:13.462Z,46.50
2017-01-26T01:45:13.027Z,46.50
2017-01-26T01:46:13.097Z,46.50
2017-01-26T01:47:12.201Z,46.50
2017-01-26T01:48:12.919Z,46.50
2017-01-26T01:49:11.835Z,46.60
2017-01-26T01:50:12.475Z,46.50
2017-01-26T01:51:12.667Z,46.60
2017-01-26T01:52:13.233Z,46.50
2017-01-26T01:53:13.197Z,46.60
2017-01-26T01:54:13.408Z,46.50
2017-01-26T01:55:11.397Z,46.70
2017-01-26T01:56:08.800Z,is
2017-01-26T01:57:13.007Z,46.50
2017-01-26T01:58:10.315Z,is
2017-01-26T01:59:13.196Z,46.70
2017-01-26T02:00:12.806Z,46.60
2017-01-26T02:01:13.063Z,46.50
2017-01-26T02:02:12.650Z,46.50
2017-01-26T02:03:14.075Z,46.70
2017-01-26T02:04:10.845Z,is
2017-01-26T02:05:12.479Z,46.60
2017-01-26T02:06:12.749Z,46.70
2017-01-26T02:07:12.694Z,46.60
2017-01-26T02:08:13.464Z,46.60
2017-01-26T02:09:12.581Z,46.70
2017-01-26T02:10:11.619Z,46.70
2017-01-26T02:11:14.154Z,46.80
2017-01-26T02:12:13.061Z,46.80
2017-01-26T02:13:13.163Z,46.80
2017-01-26T02:14:13.794Z,46.80
2017-01-26T02:15:12.972Z,46.70
2017-01-26T02:16:12.221Z,46.70
2017-01-26T02:17:13.147Z,46.80
2017-01-26T02:18:12.847Z,46.70
2017-01-26T02:19:12.595Z,46.80
2017-01-26T02:20:12.888Z,46.80
2017-01-26T02:21:13.327Z,46.80
2017-01-26T02:22:12.521Z,46.80
2017-01-26T02:23:13.331Z,46.80
2017-01-26T02:24:13.290Z,46.80
2017-01-26T02:25:13.019Z,46.90
2017-01-26T02:26:10.896Z,is
2017-01-26T02:27:12.676Z,46.80
2017-01-26T02:28:13.229Z,46.90
2017-01-26T02:29:11.168Z,is
2017-01-26T02:30:13.619Z,46.80
2017-01-26T02:31:12.375Z,46.90
2017-01-26T02:32:13.230Z,46.90
2017-01-26T02:33:14.025Z,46.90
2017-01-26T02:34:13.546Z,46.90
2017-01-26T02:35:11.565Z,46.90
2017-01-26T02:36:12.289Z,46.90
2017-01-26T02:37:12.091Z,47.00
2017-01-26T02:38:12.701Z,47.00
2017-01-26T02:39:14.429Z,46.90
2017-01-26T02:40:12.352Z,46.80
2017-01-26T02:41:13.187Z,46.90
2017-01-26T02:42:12.294Z,46.90
2017-01-26T02:43:10.882Z,is
2017-01-26T02:44:12.355Z,46.80
2017-01-26T02:45:10.324Z,is
2017-01-26T02:46:11.682Z,46.90
2017-01-26T02:47:11.843Z,46.90
2017-01-26T02:48:11.829Z,46.90
2017-01-26T02:49:09.778Z,is
2017-01-26T02:50:12.183Z,46.80
2017-01-26T02:51:12.334Z,46.80
2017-01-26T02:52:11.547Z,46.90
2017-01-26T02:53:09.736Z,is
2017-01-26T02:54:12.720Z,46.90
2017-01-26T02:55:11.830Z,46.80
2017-01-26T02:56:11.853Z,46.90
2017-01-26T02:57:11.897Z,46.80
2017-01-26T02:58:13.244Z,46.90
2017-01-26T02:59:12.185Z,46.90
2017-01-26T03:00:13.878Z,47.00
2017-01-26T03:01:11.913Z,46.80
2017-01-26T03:02:12.608Z,46.90
2017-01-26T03:03:12.069Z,46.90
2017-01-26T03:04:13.146Z,46.90
2017-01-26T03:05:10.867Z,is
2017-01-26T03:06:13.255Z,47.00
2017-01-26T03:07:13.136Z,46.90
2017-01-26T03:08:13.708Z,47.00
2017-01-26T03:09:13.663Z,47.00
2017-01-26T03:10:11.641Z,46.90
2017-01-26T03:11:12.618Z,46.90
2017-01-26T03:12:12.259Z,46.90
2017-01-26T03:13:09.632Z,is
2017-01-26T03:14:12.276Z,47.00
2017-01-26T03:15:12.386Z,47.00
2017-01-26T03:16:12.565Z,47.00
2017-01-26T03:17:12.393Z,47.00
2017-01-26T03:18:11.368Z,47.10
2017-01-26T03:19:13.051Z,47.00
2017-01-26T03:20:11.936Z,46.90
2017-01-26T03:21:12.398Z,46.90
2017-01-26T03:22:13.000Z,47.00
2017-01-26T03:23:12.177Z,47.00
2017-01-26T03:24:12.241Z,47.00
2017-01-26T03:25:12.988Z,47.00
2017-01-26T03:26:12.937Z,47.00
2017-01-26T03:27:12.591Z,47.00
2017-01-26T03:28:11.706Z,47.10
2017-01-26T03:29:12.540Z,47.00
2017-01-26T03:30:13.541Z,47.00
2017-01-26T03:31:12.425Z,47.10
2017-01-26T03:32:10.064Z,is
2017-01-26T03:33:14.176Z,47.10
2017-01-26T03:34:12.323Z,47.10
2017-01-26T03:35:13.276Z,47.00
2017-01-26T03:36:12.784Z,47.00
2017-01-26T03:37:12.266Z,47.10
2017-01-26T03:38:13.822Z,47.10
2017-01-26T03:39:12.497Z,47.10
2017-01-26T03:40:11.239Z,is
2017-01-26T03:41:11.678Z,47.00
2017-01-26T03:42:11.653Z,47.00
2017-01-26T03:43:12.165Z,47.00
2017-01-26T03:44:12.776Z,47.00
2017-01-26T03:45:12.907Z,47.10
2017-01-26T03:46:12.706Z,47.20
2017-01-26T03:47:12.212Z,47.20
2017-01-26T03:48:12.907Z,47.10
2017-01-26T03:49:12.074Z,47.00
2017-01-26T03:50:12.042Z,47.10
2017-01-26T03:51:12.637Z,47.10
2017-01-26T03:52:11.579Z,47.10
2017-01-26T03:53:11.604Z,47.10
2017-01-26T03:54:11.894Z,47.10
2017-01-26T03:55:12.851Z,47.20
2017-01-26T03:56:13.416Z,47.60
2017-01-26T03:57:13.263Z,47.10
2017-01-26T03:58:13.809Z,47.20
2017-01-26T03:59:13.056Z,47.20
2017-01-26T04:00:12.935Z,47.10
2017-01-26T04:01:12.532Z,47.20
2017-01-26T04:02:13.184Z,47.30
2017-01-26T04:03:12.152Z,47.10
2017-01-26T04:04:12.888Z,47.30
2017-01-26T04:05:12.586Z,47.30
2017-01-26T04:06:11.675Z,47.20
2017-01-26T04:07:11.797Z,47.20
2017-01-26T04:08:13.707Z,47.20
2017-01-26T04:09:13.681Z,47.20
2017-01-26T04:10:13.295Z,47.30
2017-01-26T04:11:12.405Z,47.20
2017-01-26T04:12:10.798Z,is
2017-01-26T04:13:13.123Z,47.20
2017-01-26T04:14:12.187Z,47.10
2017-01-26T04:15:10.098Z,is
2017-01-26T04:16:10.789Z,is
2017-01-26T04:17:13.262Z,47.20
2017-01-26T04:18:12.835Z,47.20
2017-01-26T04:19:12.528Z,47.20
2017-01-26T04:20:12.101Z,47.20
2017-01-26T04:21:12.225Z,47.20
2017-01-26T04:22:12.292Z,47.10
2017-01-26T04:23:12.912Z,47.20
2017-01-26T04:24:13.030Z,47.20
2017-01-26T04:25:10.694Z,is
2017-01-26T04:26:11.936Z,47.10
2017-01-26T04:27:12.454Z,47.30
2017-01-26T04:28:11.735Z,47.20
2017-01-26T04:29:13.713Z,47.30
2017-01-26T04:30:12.638Z,47.30
2017-01-26T04:31:12.487Z,47.20
2017-01-26T04:32:14.055Z,47.30
2017-01-26T04:33:10.715Z,is
2017-01-26T04:34:10.944Z,is
2017-01-26T04:35:11.554Z,is
2017-01-26T04:36:11.933Z,47.20
2017-01-26T04:37:12.010Z,47.30
2017-01-26T04:38:12.042Z,47.20
2017-01-26T04:39:12.678Z,47.50
2017-01-26T04:40:12.078Z,47.30
2017-01-26T04:41:13.159Z,47.40
2017-01-26T04:42:12.800Z,47.30
2017-01-26T04:43:12.713Z,47.50
2017-01-26T04:44:12.470Z,47.40
2017-01-26T04:45:12.747Z,46.40
2017-01-26T04:46:13.601Z,47.40
2017-01-26T04:47:11.894Z,47.30
2017-01-26T04:48:11.900Z,47.20
2017-01-26T04:49:12.423Z,47.30
2017-01-26T04:50:11.549Z,47.30
2017-01-26T04:51:11.754Z,47.40
2017-01-26T04:52:11.817Z,47.40
2017-01-26T04:53:12.326Z,47.30
2017-01-26T04:54:12.908Z,47.30
2017-01-26T04:55:13.100Z,47.40
2017-01-26T04:56:12.872Z,47.30
2017-01-26T04:57:12.680Z,47.40
2017-01-26T04:58:10.437Z,is
2017-01-26T04:59:12.479Z,47.40
2017-01-26T05:00:13.206Z,47.30
2017-01-26T05:01:12.966Z,47.40
2017-01-26T05:02:12.621Z,47.40
2017-01-26T05:03:11.761Z,47.30
2017-01-26T05:04:12.328Z,47.50
2017-01-26T05:05:13.478Z,47.20
2017-01-26T05:06:11.715Z,47.50
2017-01-26T05:07:13.626Z,47.30
2017-01-26T05:08:11.821Z,47.40
2017-01-26T05:09:12.253Z,47.40
2017-01-26T05:10:12.197Z,47.30
2017-01-26T05:11:10.991Z,is
2017-01-26T05:12:12.881Z,47.40
2017-01-26T05:13:11.975Z,47.40
2017-01-26T05:14:12.189Z,47.40
2017-01-26T05:15:13.325Z,47.50
2017-01-26T05:16:15.149Z,47.50
2017-01-26T05:17:10.923Z,is
2017-01-26T05:18:09.474Z,is
2017-01-26T05:19:11.635Z,47.40
2017-01-26T05:20:11.645Z,47.50
2017-01-26T05:21:12.862Z,47.40
2017-01-26T05:22:13.477Z,47.40
2017-01-26T05:23:12.205Z,47.40
2017-01-26T05:24:12.818Z,47.30
2017-01-26T05:25:16.367Z,47.50
2017-01-26T05:26:15.871Z,47.50
2017-01-26T05:27:13.461Z,47.50
2017-01-26T05:28:12.579Z,47.40
2017-01-26T05:29:12.337Z,47.60
2017-01-26T05:30:12.088Z,47.50
2017-01-26T05:31:12.176Z,47.40
2017-01-26T05:32:12.701Z,47.40
2017-01-26T05:33:12.837Z,47.40
2017-01-26T05:34:12.430Z,47.50
2017-01-26T05:35:11.451Z,47.40
2017-01-26T05:36:11.709Z,47.40
2017-01-26T05:37:12.244Z,47.50
2017-01-26T05:38:14.364Z,47.50
2017-01-26T05:39:14.186Z,47.50
2017-01-26T05:40:12.678Z,47.30
2017-01-26T05:41:11.828Z,47.50
2017-01-26T05:42:12.572Z,47.50
2017-01-26T05:43:12.289Z,47.40
2017-01-26T05:44:12.473Z,47.50
2017-01-26T05:45:12.533Z,47.60
2017-01-26T05:46:11.591Z,47.40
2017-01-26T05:47:13.249Z,47.50
2017-01-26T05:48:12.323Z,47.50
2017-01-26T05:49:13.469Z,47.50
2017-01-26T05:50:12.103Z,47.60
2017-01-26T05:51:12.862Z,47.40
2017-01-26T05:52:12.586Z,47.50
2017-01-26T05:53:11.743Z,47.40
2017-01-26T05:54:12.487Z,47.50
2017-01-26T05:55:14.170Z,47.50
2017-01-26T05:56:10.290Z,is
2017-01-26T05:57:11.638Z,47.50
2017-01-26T05:58:11.765Z,47.50
2017-01-26T05:59:11.843Z,47.50
2017-01-26T06:00:10.664Z,is
2017-01-26T06:01:14.007Z,47.60
2017-01-26T06:02:09.402Z,is
2017-01-26T06:03:11.589Z,47.50
2017-01-26T06:04:13.227Z,47.50
2017-01-26T06:05:12.957Z,47.50
2017-01-26T06:06:10.601Z,is
2017-01-26T06:07:12.537Z,47.50
2017-01-26T06:08:11.552Z,47.50
2017-01-26T06:09:11.619Z,47.50
2017-01-26T06:10:12.511Z,47.60
2017-01-26T06:11:11.466Z,47.50
2017-01-26T06:12:12.087Z,47.60
2017-01-26T06:13:12.147Z,47.60
2017-01-26T06:14:12.217Z,47.50
2017-01-26T06:15:12.276Z,47.50
2017-01-26T06:16:12.435Z,47.50
2017-01-26T06:17:11.516Z,47.50
2017-01-26T06:18:10.497Z,is
2017-01-26T06:19:11.685Z,47.60
2017-01-26T06:20:12.377Z,47.70
2017-01-26T06:21:12.306Z,47.60
2017-01-26T06:22:12.967Z,47.50
2017-01-26T06:23:13.869Z,47.60
2017-01-26T06:24:10.668Z,is
2017-01-26T06:25:13.483Z,47.50
2017-01-26T06:26:12.337Z,47.50
2017-01-26T06:27:12.879Z,47.50
2017-01-26T06:28:12.779Z,47.60
2017-01-26T06:29:11.067Z,is
2017-01-26T06:30:12.057Z,47.60
2017-01-26T06:31:12.117Z,47.60
2017-01-26T06:32:12.779Z,47.60
2017-01-26T06:33:11.787Z,47.50
2017-01-26T06:34:12.450Z,47.50
2017-01-26T06:35:12.110Z,47.70
2017-01-26T06:36:10.774Z,is
2017-01-26T06:37:12.374Z,47.60
2017-01-26T06:38:13.256Z,47.70
2017-01-26T06:39:12.170Z,47.70
2017-01-26T06:40:14.247Z,47.70
2017-01-26T06:41:11.146Z,is
2017-01-26T06:42:12.533Z,47.70
2017-01-26T06:43:11.980Z,47.70
2017-01-26T06:44:12.697Z,47.70
2017-01-26T06:45:12.470Z,47.60
2017-01-26T06:46:12.188Z,47.70
2017-01-26T06:47:12.249Z,47.60
2017-01-26T06:48:13.086Z,47.70
2017-01-26T06:49:13.301Z,47.50
2017-01-26T06:50:13.009Z,47.60
2017-01-26T06:51:10.787Z,is
2017-01-26T06:52:12.164Z,47.60
2017-01-26T06:53:13.072Z,47.70
2017-01-26T06:54:12.656Z,47.70
2017-01-26T06:55:12.386Z,47.70
2017-01-26T06:56:12.080Z,47.60
2017-01-26T06:57:10.645Z,is
2017-01-26T06:58:12.128Z,47.50
2017-01-26T06:59:14.173Z,47.70
2017-01-26T07:00:09.531Z,is
2017-01-26T07:01:13.072Z,47.70
2017-01-26T07:02:12.233Z,47.70
2017-01-26T07:03:12.952Z,47.60
2017-01-26T07:04:12.174Z,47.60
2017-01-26T07:05:12.602Z,47.80
2017-01-26T07:06:12.357Z,47.80
2017-01-26T07:07:13.121Z,47.80
2017-01-26T07:08:10.179Z,is
2017-01-26T07:09:14.109Z,47.70
2017-01-26T07:10:13.805Z,47.70
2017-01-26T07:11:10.482Z,is
2017-01-26T07:12:11.808Z,47.60
2017-01-26T07:13:12.410Z,47.80
2017-01-26T07:14:09.641Z,is
2017-01-26T07:15:12.745Z,47.60
2017-01-26T07:16:11.705Z,47.70
2017-01-26T07:17:10.273Z,is
2017-01-26T07:18:11.725Z,47.70
2017-01-26T07:19:11.720Z,47.70
2017-01-26T07:20:10.824Z,is
2017-01-26T07:21:12.906Z,47.80
2017-01-26T07:22:12.732Z,47.60
2017-01-26T07:23:13.868Z,47.80
2017-01-26T07:24:12.667Z,47.70
2017-01-26T07:25:12.364Z,47.60
2017-01-26T07:26:12.524Z,47.70
2017-01-26T07:27:11.613Z,47.70
2017-01-26T07:28:12.453Z,47.80
2017-01-26T07:29:11.667Z,47.60
2017-01-26T07:30:09.129Z,is
2017-01-26T07:31:13.091Z,47.90
2017-01-26T07:32:13.865Z,47.60
2017-01-26T07:33:12.560Z,47.80
2017-01-26T07:34:14.206Z,47.80
2017-01-26T07:35:12.265Z,47.70
2017-01-26T07:36:12.940Z,47.90
2017-01-26T07:37:12.351Z,47.80
2017-01-26T07:38:12.377Z,47.60
2017-01-26T07:39:11.968Z,47.90
2017-01-26T07:40:12.466Z,47.90
2017-01-26T07:41:12.319Z,47.80
2017-01-26T07:42:13.098Z,47.80
2017-01-26T07:43:10.225Z,is
2017-01-26T07:44:12.276Z,47.40
2017-01-26T07:45:13.471Z,47.80
2017-01-26T07:46:11.451Z,47.80
2017-01-26T07:47:12.496Z,47.70
2017-01-26T07:48:11.521Z,47.80
2017-01-26T07:49:11.980Z,47.80
2017-01-26T07:50:12.445Z,47.80
2017-01-26T07:51:11.644Z,47.80
2017-01-26T07:52:12.219Z,47.80
2017-01-26T07:53:12.580Z,47.80
2017-01-26T07:54:11.531Z,47.90
2017-01-26T07:55:11.788Z,47.80
2017-01-26T07:56:11.862Z,47.80
2017-01-26T07:57:12.592Z,47.90
2017-01-26T07:58:12.546Z,47.70
2017-01-26T07:59:11.695Z,47.80
2017-01-26T08:00:11.812Z,47.70
2017-01-26T08:01:11.865Z,47.80
2017-01-26T08:02:12.421Z,47.90
2017-01-26T08:03:12.630Z,47.90
2017-01-26T08:04:12.460Z,47.80
2017-01-26T08:05:11.899Z,47.90
2017-01-26T08:06:12.575Z,47.90
2017-01-26T08:07:11.843Z,47.80
2017-01-26T08:08:13.587Z,47.80
2017-01-26T08:09:12.497Z,47.70
2017-01-26T08:10:13.128Z,47.80
2017-01-26T08:11:13.001Z,47.90
2017-01-26T08:12:09.827Z,is
2017-01-26T08:13:14.089Z,47.90
2017-01-26T08:14:11.006Z,is
2017-01-26T08:15:12.300Z,47.80
2017-01-26T08:16:13.057Z,48.00
2017-01-26T08:17:12.323Z,47.90
2017-01-26T08:18:12.397Z,47.90
2017-01-26T08:19:11.279Z,is
2017-01-26T08:20:13.202Z,48.00
2017-01-26T08:21:12.685Z,48.00
2017-01-26T08:22:11.649Z,47.90
2017-01-26T08:23:12.060Z,47.80
2017-01-26T08:24:12.548Z,48.00
2017-01-26T08:25:12.295Z,48.00
2017-01-26T08:26:12.862Z,47.90
2017-01-26T08:27:12.703Z,47.90
2017-01-26T08:28:13.256Z,47.70
2017-01-26T08:29:12.482Z,47.80
2017-01-26T08:30:12.267Z,47.90
2017-01-26T08:31:12.009Z,47.80
2017-01-26T08:32:13.757Z,47.90
2017-01-26T08:33:11.761Z,47.80
2017-01-26T08:34:11.777Z,47.80
2017-01-26T08:35:12.343Z,48.00
2017-01-26T08:36:12.641Z,47.90
2017-01-26T08:37:12.300Z,47.90
2017-01-26T08:38:13.879Z,48.00
2017-01-26T08:39:12.802Z,48.00
2017-01-26T08:40:11.999Z,47.90
2017-01-26T08:41:12.792Z,48.00
2017-01-26T08:42:12.492Z,47.90
2017-01-26T08:43:11.533Z,48.00
2017-01-26T08:44:11.453Z,47.90
2017-01-26T08:45:13.005Z,48.00
2017-01-26T08:46:12.120Z,48.00
2017-01-26T08:47:12.243Z,48.00
2017-01-26T08:48:12.295Z,48.00
2017-01-26T08:49:11.368Z,is
2017-01-26T08:50:12.157Z,48.10
2017-01-26T08:51:12.996Z,48.00
2017-01-26T08:52:12.132Z,48.30
2017-01-26T08:53:12.173Z,48.30
2017-01-26T08:54:12.886Z,48.20
2017-01-26T08:55:12.679Z,48.20
2017-01-26T08:56:11.734Z,48.00
2017-01-26T08:57:11.791Z,48.00
2017-01-26T08:58:11.923Z,48.30
2017-01-26T08:59:13.471Z,48.40
2017-01-26T09:00:11.485Z,48.00
2017-01-26T09:01:10.556Z,is
2017-01-26T09:02:12.789Z,48.00
2017-01-26T09:03:13.719Z,48.00
2017-01-26T09:04:10.451Z,is
2017-01-26T09:05:13.132Z,48.00
2017-01-26T09:06:12.883Z,47.90
2017-01-26T09:07:12.210Z,47.90
2017-01-26T09:08:10.519Z,is
2017-01-26T09:09:12.344Z,47.90
2017-01-26T09:10:12.408Z,47.90
2017-01-26T09:11:12.392Z,48.00
2017-01-26T09:12:13.083Z,48.10
2017-01-26T09:13:13.232Z,48.10
2017-01-26T09:14:09.527Z,is
2017-01-26T09:15:11.630Z,32.40
2017-01-26T09:16:15.532Z,36.70
2017-01-26T09:17:11.555Z,32.50
2017-01-26T09:18:08.772Z,is
2017-01-26T09:19:12.824Z,30.30
2017-01-26T09:20:12.669Z,31.20
2017-01-26T09:21:11.711Z,31.20
2017-01-26T09:22:12.343Z,30.00
2017-01-26T09:23:12.510Z,30.20
2017-01-26T09:24:13.273Z,31.00
2017-01-26T09:25:12.401Z,31.00
2017-01-26T09:26:12.636Z,33.00
2017-01-26T09:27:10.450Z,is
2017-01-26T09:28:12.031Z,33.70
2017-01-26T09:29:12.559Z,33.60
2017-01-26T09:30:12.261Z,33.40
2017-01-26T09:31:11.043Z,is
2017-01-26T09:32:13.018Z,34.40
2017-01-26T09:33:12.790Z,34.20
2017-01-26T09:34:12.482Z,34.50
2017-01-26T09:35:13.478Z,34.80
2017-01-26T09:36:12.247Z,35.00
2017-01-26T09:37:13.040Z,35.20
2017-01-26T09:38:12.541Z,35.30
2017-01-26T09:39:13.207Z,35.40
2017-01-26T09:40:12.324Z,35.60
2017-01-26T09:41:12.867Z,35.70
2017-01-26T09:42:12.921Z,35.70
2017-01-26T09:43:12.510Z,35.90
2017-01-26T09:44:10.688Z,is
2017-01-26T09:45:12.576Z,36.00
2017-01-26T09:46:13.198Z,36.10
2017-01-26T09:47:12.898Z,36.20
2017-01-26T09:48:11.992Z,36.50
2017-01-26T09:49:12.111Z,36.70
2017-01-26T09:50:14.898Z,37.00
2017-01-26T09:51:12.607Z,37.20
2017-01-26T09:52:12.353Z,37.50
2017-01-26T09:53:12.948Z,37.50
2017-01-26T09:54:12.636Z,37.80
2017-01-26T09:55:13.217Z,38.00
2017-01-26T09:56:11.061Z,is
2017-01-26T09:57:13.131Z,38.40
2017-01-26T09:58:12.239Z,38.40
2017-01-26T09:59:12.231Z,38.90
2017-01-26T10:00:12.896Z,38.60
2017-01-26T10:01:12.593Z,38.70
2017-01-26T10:02:11.680Z,38.80
2017-01-26T10:03:11.841Z,38.90
2017-01-26T10:04:12.637Z,39.00
2017-01-26T10:05:11.518Z,39.20
2017-01-26T10:06:12.089Z,39.50
2017-01-26T10:07:13.791Z,39.50
2017-01-26T10:08:12.592Z,39.60
2017-01-26T10:09:12.338Z,39.70
2017-01-26T10:10:11.417Z,is
2017-01-26T10:11:14.398Z,39.90
2017-01-26T10:12:14.268Z,40.10
2017-01-26T10:13:12.528Z,40.00
2017-01-26T10:14:12.317Z,40.20
2017-01-26T10:15:12.378Z,40.20
2017-01-26T10:16:11.528Z,40.30
2017-01-26T10:17:11.863Z,40.40
2017-01-26T10:18:12.537Z,40.40
2017-01-26T10:19:13.233Z,40.80
2017-01-26T10:20:15.077Z,40.60
2017-01-26T10:21:12.998Z,40.60
2017-01-26T10:22:12.624Z,40.80
2017-01-26T10:23:13.404Z,40.90
2017-01-26T10:24:11.603Z,41.00
2017-01-26T10:25:13.467Z,41.20
2017-01-26T10:26:12.456Z,41.10
2017-01-26T10:27:15.515Z,41.00
2017-01-26T10:28:12.009Z,41.30
2017-01-26T10:29:13.727Z,41.30
2017-01-26T10:30:11.752Z,41.40
2017-01-26T10:31:12.509Z,41.70
2017-01-26T10:32:13.274Z,41.80
2017-01-26T10:33:12.842Z,41.70
2017-01-26T10:34:11.945Z,41.80
2017-01-26T10:35:12.117Z,41.80
2017-01-26T10:36:14.053Z,41.80
2017-01-26T10:37:13.013Z,41.80
2017-01-26T10:38:12.719Z,41.90
2017-01-26T10:39:14.527Z,42.00
2017-01-26T10:40:11.608Z,42.00
2017-01-26T10:41:11.775Z,42.00
2017-01-26T10:42:12.374Z,42.00
2017-01-26T10:43:12.487Z,42.10
2017-01-26T10:44:14.396Z,42.10
2017-01-26T10:45:12.026Z,42.20
2017-01-26T10:46:12.824Z,42.40
2017-01-26T10:47:12.874Z,42.30
2017-01-26T10:48:11.968Z,42.30
2017-01-26T10:49:12.752Z,42.50
2017-01-26T10:50:13.277Z,42.40
2017-01-26T10:51:13.268Z,42.50
2017-01-26T10:52:12.194Z,42.50
2017-01-26T10:53:12.830Z,42.70
2017-01-26T10:54:11.838Z,42.70
2017-01-26T10:55:14.560Z,42.70
2017-01-26T10:56:12.438Z,42.80
2017-01-26T10:57:11.632Z,43.10
2017-01-26T10:58:12.390Z,43.30
2017-01-26T10:59:11.701Z,43.20
2017-01-26T11:00:10.697Z,is
2017-01-26T11:01:14.389Z,43.30
2017-01-26T11:02:12.128Z,43.20
2017-01-26T11:03:14.187Z,43.30
2017-01-26T11:04:12.670Z,43.20
2017-01-26T11:05:12.410Z,43.20
2017-01-26T11:06:11.507Z,43.20
2017-01-26T11:07:12.377Z,43.30
2017-01-26T11:08:13.161Z,43.20
2017-01-26T11:09:12.417Z,43.10
2017-01-26T11:10:12.821Z,43.30
2017-01-26T11:11:13.157Z,43.50
2017-01-26T11:12:13.199Z,43.90
2017-01-26T11:13:14.073Z,43.50
2017-01-26T11:14:13.539Z,43.50
2017-01-26T11:15:12.292Z,43.50
2017-01-26T11:16:14.001Z,43.30
2017-01-26T11:17:13.996Z,43.50
2017-01-26T11:18:13.394Z,44.50
2017-01-26T11:19:12.823Z,44.70
2017-01-26T11:20:13.617Z,44.70
2017-01-26T11:21:12.183Z,44.60
2017-01-26T11:22:12.530Z,44.70
2017-01-26T11:23:12.150Z,45.30
2017-01-26T11:24:15.055Z,45.60
2017-01-26T11:25:12.420Z,45.50
2017-01-26T11:26:11.636Z,45.20
2017-01-26T11:27:12.232Z,45.50
2017-01-26T11:28:13.078Z,46.00
2017-01-26T11:29:12.355Z,46.20
2017-01-26T11:30:12.684Z,45.50
2017-01-26T11:31:13.382Z,45.90
2017-01-26T11:32:10.480Z,is
2017-01-26T11:33:12.240Z,46.10
2017-01-26T11:34:10.982Z,is
2017-01-26T11:35:13.170Z,46.60
2017-01-26T11:36:12.511Z,47.50
2017-01-26T11:37:11.731Z,47.00
2017-01-26T11:38:46.591Z,48.10
2017-01-26T11:39:23.824Z,is
2017-01-26T11:40:13.079Z,48.50
2017-01-26T11:41:12.313Z,48.50
2017-01-26T11:42:12.592Z,48.50
2017-01-26T11:43:11.677Z,48.60
2017-01-26T11:44:11.956Z,48.80
2017-01-26T11:45:13.499Z,48.90
2017-01-26T11:46:12.178Z,48.80
2017-01-26T11:47:10.842Z,is
2017-01-26T11:48:12.327Z,48.90
2017-01-26T11:49:12.308Z,49.00
2017-01-26T11:50:12.445Z,49.00
2017-01-26T11:51:11.502Z,49.10
2017-01-26T11:52:11.645Z,49.20
2017-01-26T11:53:11.705Z,49.30
2017-01-26T11:54:10.683Z,is
2017-01-26T11:55:13.328Z,49.50
2017-01-26T11:56:13.189Z,49.50
2017-01-26T11:57:12.863Z,49.50
2017-01-26T11:58:12.527Z,49.60
2017-01-26T11:59:11.631Z,49.50
2017-01-26T12:00:14.177Z,49.70
2017-01-26T12:01:11.977Z,49.70
2017-01-26T12:02:12.839Z,49.80
2017-01-26T12:03:11.819Z,49.80
2017-01-26T12:04:10.217Z,is
2017-01-26T12:05:13.228Z,50.00
2017-01-26T12:06:13.954Z,50.30
2017-01-26T12:07:12.884Z,50.20
2017-01-26T12:08:12.065Z,50.10
2017-01-26T12:09:13.960Z,50.30
2017-01-26T12:10:13.596Z,50.00
2017-01-26T12:11:10.647Z,is
2017-01-26T12:12:14.237Z,50.60
2017-01-26T12:13:12.576Z,50.60
2017-01-26T12:14:12.246Z,50.60
2017-01-26T12:15:10.472Z,is
2017-01-26T12:16:11.780Z,50.70
2017-01-26T12:17:12.590Z,50.60
2017-01-26T12:18:11.780Z,50.30
2017-01-26T12:19:12.527Z,50.50
2017-01-26T12:20:11.921Z,50.50
2017-01-26T12:21:12.534Z,50.60
2017-01-26T12:22:11.605Z,50.40
2017-01-26T12:23:11.833Z,50.60
2017-01-26T12:24:11.853Z,50.90
2017-01-26T12:25:11.878Z,50.80
2017-01-26T12:26:11.959Z,50.60
2017-01-26T12:27:12.634Z,50.80
2017-01-26T12:28:12.562Z,50.90
2017-01-26T12:29:12.967Z,51.00
2017-01-26T12:30:12.688Z,50.50
2017-01-26T12:31:11.760Z,51.40
2017-01-26T12:32:11.721Z,51.00
2017-01-26T12:33:14.217Z,51.20
2017-01-26T12:34:12.329Z,51.10
2017-01-26T12:35:12.457Z,51.10
2017-01-26T12:36:10.074Z,is
2017-01-26T12:37:12.099Z,50.70
2017-01-26T12:38:12.279Z,51.10
2017-01-26T12:39:12.515Z,51.10
2017-01-26T12:40:12.247Z,51.20
2017-01-26T12:41:13.238Z,51.20
2017-01-26T12:42:12.678Z,51.10
2017-01-26T12:43:10.546Z,is
2017-01-26T12:44:11.910Z,51.20
2017-01-26T12:45:12.223Z,51.20
2017-01-26T12:46:11.243Z,is
2017-01-26T12:47:13.009Z,51.30
2017-01-26T12:48:12.039Z,51.30
2017-01-26T12:49:12.095Z,51.20
2017-01-26T12:50:12.807Z,51.30
2017-01-26T12:51:12.997Z,51.30
2017-01-26T12:52:10.501Z,is
2017-01-26T12:53:11.790Z,51.50
2017-01-26T12:54:12.148Z,51.50
2017-01-26T12:55:12.319Z,51.30
2017-01-26T12:56:14.161Z,51.70
2017-01-26T12:57:13.269Z,52.20
2017-01-26T12:58:10.417Z,is
2017-01-26T12:59:12.154Z,51.40
2017-01-26T13:00:12.251Z,51.60